createdAt,value
2023-01-03T00:00:24.027Z,37.81
2023-01-03T00:01:29.385Z,38.44
2023-01-03T00:02:33.661Z,39.13
2023-01-03T00:03:39.945Z,38.44
2023-01-03T00:04:49.218Z,37.19
2023-01-03T00:05:50.426Z,39.06
2023-01-03T00:06:58.343Z,40.31
2023-01-03T00:08:03.018Z,35.94
2023-01-03T00:09:09.729Z,40.31
2023-01-03T00:10:14.769Z,38.93
2023-01-03T00:11:21.565Z,37.67
2023-01-03T00:12:30.703Z,39.13
2023-01-03T00:13:33.328Z,36.94
2023-01-03T00:14:40.221Z,38.81
2023-01-03T00:15:44.368Z,39.63
2023-01-03T00:16:57.037Z,37.06
2023-01-03T00:18:01.332Z,41.40
2023-01-03T00:19:13.427Z,37.25
2023-01-03T00:20:18.019Z,38.88
2023-01-03T00:21:21.915Z,35.63
2023-01-03T00:22:25.982Z,38.06
2023-01-03T00:23:30.841Z,37.67
2023-01-03T00:24:35.308Z,38.69
2023-01-03T00:25:39.249Z,40.40
2023-01-03T00:26:45.242Z,39.13
2023-01-03T00:27:49.262Z,36.19
2023-01-03T00:28:53.465Z,38.00
2023-01-03T00:29:57.521Z,38.40
2023-01-03T00:31:08.143Z,38.13
2023-01-03T00:32:12.339Z,40.44
2023-01-03T00:33:17.850Z,37.33
2023-01-03T00:34:22.377Z,38.44
2023-01-03T00:35:26.431Z,36.88
2023-01-03T00:36:30.957Z,36.88
2023-01-03T00:37:35.060Z,38.25
2023-01-03T00:38:39.437Z,37.60
2023-01-03T00:39:43.445Z,38.38
2023-01-03T00:40:47.637Z,37.33
2023-01-03T00:41:53.216Z,36.63
2023-01-03T00:42:57.257Z,37.75
2023-01-03T00:44:01.292Z,35.33
2023-01-03T00:45:07.192Z,37.88
2023-01-03T00:46:16.660Z,37.60
2023-01-03T00:47:21.144Z,36.40
2023-01-03T00:48:25.355Z,37.88
2023-01-03T00:49:29.458Z,34.73
2023-01-03T00:50:33.466Z,37.63
2023-01-03T00:51:39.641Z,38.44
2023-01-03T00:52:43.537Z,35.93
2023-01-03T00:53:50.508Z,38.44
2023-01-03T00:54:54.520Z,38.19
2023-01-03T00:56:17.659Z,37.19
2023-01-03T00:57:15.549Z,37.31
2023-01-03T00:58:21.151Z,38.00
2023-01-03T00:59:26.160Z,39.38
2023-01-03T01:00:30.663Z,38.13
2023-01-03T01:01:46.665Z,35.25
2023-01-03T01:02:48.367Z,41.13
2023-01-03T01:03:55.447Z,38.38
2023-01-03T01:05:05.123Z,39.06
2023-01-03T01:06:28.374Z,38.44
2023-01-03T01:07:32.181Z,40.07
2023-01-03T01:08:36.776Z,41.07
2023-01-03T01:09:43.928Z,39.60
2023-01-03T01:10:48.460Z,36.50
2023-01-03T01:11:53.036Z,39.60
2023-01-03T01:12:58.911Z,39.88
2023-01-03T01:14:03.493Z,38.75
2023-01-03T01:15:08.210Z,38.31
2023-01-03T01:16:18.969Z,38.06
2023-01-03T01:17:22.954Z,39.40
2023-01-03T01:18:31.635Z,41.40
2023-01-03T01:19:41.572Z,38.06
2023-01-03T01:20:45.658Z,41.44
2023-01-03T01:21:49.828Z,40.94
2023-01-03T01:22:57.704Z,40.50
2023-01-03T01:24:01.906Z,41.50
2023-01-03T01:25:06.356Z,40.73
2023-01-03T01:26:14.159Z,41.13
2023-01-03T01:27:18.322Z,39.73
2023-01-03T01:28:22.392Z,40.00
2023-01-03T01:29:26.866Z,41.75
2023-01-03T01:30:31.223Z,39.44
2023-01-03T01:31:35.476Z,41.73
2023-01-03T01:33:49.532Z,40.00
2023-01-03T01:34:53.657Z,44.47
2023-01-03T01:35:57.833Z,42.19
2023-01-03T01:37:02.428Z,40.73
2023-01-03T01:38:17.577Z,42.81
2023-01-03T01:39:21.558Z,41.31
2023-01-03T01:40:25.812Z,43.56
2023-01-03T01:41:32.953Z,44.80
2023-01-03T01:42:39.161Z,44.40
2023-01-03T01:45:39.215Z,44.80
2023-01-03T01:46:44.846Z,41.13
2023-01-03T01:48:08.456Z,41.94
2023-01-03T01:49:14.162Z,41.31
2023-01-03T01:50:28.022Z,42.13
2023-01-03T01:51:35.191Z,44.47
2023-01-03T01:52:42.606Z,44.33
2023-01-03T01:53:49.816Z,45.25
2023-01-03T01:54:59.879Z,42.44
2023-01-03T01:56:10.188Z,45.31
2023-01-03T01:57:20.819Z,46.25
2023-01-03T01:58:31.477Z,42.56
2023-01-03T01:59:37.578Z,42.56
2023-01-03T02:00:44.166Z,45.31
2023-01-03T02:01:50.484Z,44.31
2023-01-03T02:02:55.854Z,44.80
2023-01-03T02:04:09.943Z,17.67
2023-01-03T02:05:18.196Z,44.81
2023-01-03T02:06:24.661Z,43.63
2023-01-03T02:07:34.216Z,46.00
2023-01-03T02:08:35.009Z,42.75
2023-01-03T02:09:39.275Z,44.19
2023-01-03T02:11:09.169Z,41.56
2023-01-03T02:12:24.864Z,46.69
2023-01-03T02:13:35.223Z,44.25
2023-01-03T02:14:54.563Z,42.00
2023-01-03T02:16:10.481Z,43.44
2023-01-03T02:17:30.722Z,44.27
2023-01-03T02:18:57.016Z,44.50
2023-01-03T02:20:20.597Z,42.62
2023-01-03T02:21:44.731Z,38.00
2023-01-03T02:23:08.132Z,43.19
2023-01-03T02:24:24.468Z,45.00
2023-01-03T02:25:49.695Z,44.06
2023-01-03T02:27:14.072Z,44.06
2023-01-03T02:28:25.607Z,42.38
2023-01-03T02:29:52.148Z,43.25
2023-01-03T02:31:05.677Z,40.56
2023-01-03T02:32:32.228Z,42.80
2023-01-03T02:33:43.467Z,43.81
2023-01-03T02:34:50.608Z,43.56
2023-01-03T02:36:00.693Z,43.00
2023-01-03T02:37:07.802Z,41.81
2023-01-03T02:38:29.866Z,40.19
2023-01-03T02:39:49.307Z,42.44
2023-01-03T02:41:08.493Z,41.50
2023-01-03T02:42:18.707Z,42.06
2023-01-03T02:43:28.588Z,42.56
2023-01-03T02:44:35.719Z,37.88
2023-01-03T02:45:48.592Z,41.93
2023-01-03T02:46:58.937Z,42.00
2023-01-03T02:48:11.778Z,43.73
2023-01-03T02:49:24.536Z,44.60
2023-01-03T02:50:31.653Z,42.81
2023-01-03T02:51:41.489Z,41.80
2023-01-03T02:52:48.515Z,44.25
2023-01-03T02:53:53.041Z,38.00
2023-01-03T02:55:05.985Z,41.50
2023-01-03T02:56:13.673Z,42.25
2023-01-03T02:57:20.869Z,40.06
2023-01-03T02:58:28.071Z,44.38
2023-01-03T02:59:35.197Z,40.63
2023-01-03T03:00:42.605Z,42.75
2023-01-03T03:01:47.371Z,42.87
2023-01-03T03:02:54.695Z,41.33
2023-01-03T03:04:01.185Z,40.44
2023-01-03T03:05:08.382Z,41.56
2023-01-03T03:06:28.511Z,42.50
2023-01-03T03:07:38.080Z,42.40
2023-01-03T03:08:48.128Z,40.94
2023-01-03T03:09:52.292Z,44.19
2023-01-03T03:10:57.301Z,41.37
2023-01-03T03:12:03.696Z,42.93
2023-01-03T03:13:33.084Z,41.73
2023-01-03T03:14:46.048Z,41.50
2023-01-03T03:24:26.139Z,40.07
2023-01-03T03:25:42.033Z,39.94
2023-01-03T03:26:51.043Z,42.00
2023-01-03T03:28:05.139Z,42.73
2023-01-03T03:29:13.884Z,38.31
2023-01-03T03:30:21.550Z,40.12
2023-01-03T03:31:37.331Z,41.63
2023-01-03T03:32:45.782Z,42.13
2023-01-03T03:34:04.825Z,28.40
2023-01-03T03:35:11.513Z,42.80
2023-01-03T03:36:37.605Z,42.75
2023-01-03T03:37:44.967Z,42.44
2023-01-03T03:38:49.337Z,42.81
2023-01-03T03:39:54.610Z,42.27
2023-01-03T03:41:01.763Z,41.44
2023-01-03T03:42:23.709Z,42.06
2023-01-03T03:43:36.432Z,41.37
2023-01-03T03:44:41.365Z,41.25
2023-01-03T03:46:00.112Z,38.06
2023-01-03T03:47:07.189Z,42.69
2023-01-03T03:48:47.639Z,41.19
2023-01-03T03:49:55.026Z,42.81
2023-01-03T03:51:07.648Z,43.93
2023-01-03T03:52:14.715Z,42.13
2023-01-03T03:53:24.297Z,44.00
2023-01-03T03:54:31.126Z,40.07
2023-01-03T03:55:46.568Z,42.40
2023-01-03T03:56:52.655Z,43.56
2023-01-03T03:58:08.627Z,43.00
2023-01-03T03:59:15.421Z,42.50
2023-01-03T04:00:22.567Z,42.50
2023-01-03T04:01:29.286Z,41.56
2023-01-03T04:02:36.859Z,41.47
2023-01-03T04:03:44.080Z,37.31
2023-01-03T04:04:52.421Z,41.44
2023-01-03T04:05:59.425Z,39.63
2023-01-03T04:07:04.191Z,43.00
2023-01-03T04:08:09.064Z,43.50
2023-01-03T04:09:13.367Z,40.00
2023-01-03T04:10:19.702Z,39.00
2023-01-03T04:11:24.125Z,42.06
2023-01-03T04:12:28.492Z,40.75
2023-01-03T04:13:34.030Z,37.56
2023-01-03T04:14:38.346Z,40.47
2023-01-03T04:15:42.575Z,38.47
2023-01-03T04:16:46.921Z,40.50
2023-01-03T04:17:51.329Z,41.87
2023-01-03T04:18:56.924Z,40.25
2023-01-03T04:20:01.087Z,41.27
2023-01-03T04:21:05.254Z,39.19
2023-01-03T04:22:09.438Z,41.06
2023-01-03T04:23:13.818Z,40.40
2023-01-03T04:24:17.942Z,41.87
2023-01-03T04:25:22.448Z,43.38
2023-01-03T04:26:26.708Z,38.88
2023-01-03T04:27:30.861Z,42.38
2023-01-03T04:28:35.023Z,40.44
2023-01-03T04:29:39.762Z,43.00
2023-01-03T04:30:44.803Z,42.50
2023-01-03T04:31:48.991Z,39.38
2023-01-03T04:32:57.794Z,42.75
2023-01-03T04:34:00.402Z,41.13
2023-01-03T04:35:04.727Z,38.63
2023-01-03T04:36:09.884Z,41.13
2023-01-03T04:37:14.199Z,39.50
2023-01-03T04:38:18.615Z,42.06
2023-01-03T04:39:22.978Z,42.38
2023-01-03T04:40:28.335Z,45.27
2023-01-03T04:41:32.688Z,40.94
2023-01-03T04:42:36.827Z,41.40
2023-01-03T04:43:41.095Z,41.60
2023-01-03T04:44:45.471Z,42.13
2023-01-03T04:45:50.367Z,42.60
2023-01-03T04:46:54.927Z,40.94
2023-01-03T04:48:00.709Z,39.13
2023-01-03T04:49:06.699Z,43.44
2023-01-03T04:50:11.590Z,41.94
2023-01-03T04:51:18.534Z,40.25
2023-01-03T04:52:24.300Z,39.00
2023-01-03T04:53:28.846Z,39.25
2023-01-03T04:54:32.968Z,42.13
2023-01-03T04:55:37.148Z,41.50
2023-01-03T04:56:41.411Z,42.87
2023-01-03T04:57:47.845Z,41.75
2023-01-03T04:58:53.780Z,39.20
2023-01-03T04:59:57.999Z,37.69
2023-01-03T05:01:04.452Z,40.87
2023-01-03T05:02:09.204Z,37.94
2023-01-03T05:03:13.764Z,41.53
2023-01-03T05:04:22.416Z,38.93
2023-01-03T05:05:26.489Z,36.56
2023-01-03T05:06:30.640Z,40.63
2023-01-03T05:07:37.345Z,41.06
2023-01-03T05:08:47.473Z,41.69
2023-01-03T05:09:53.479Z,42.00
2023-01-03T05:10:57.721Z,42.75
2023-01-03T05:12:03.495Z,41.63
2023-01-03T05:13:08.283Z,42.73
2023-01-03T05:14:14.464Z,41.81
2023-01-03T05:15:18.267Z,42.13
2023-01-03T05:16:22.693Z,42.19
2023-01-03T05:17:29.961Z,43.07
2023-01-03T05:18:37.639Z,42.67
2023-01-03T05:19:45.392Z,41.19
2023-01-03T05:20:47.749Z,40.19
2023-01-03T05:21:52.021Z,41.44
2023-01-03T05:22:56.069Z,42.94
2023-01-03T05:24:02.144Z,44.00
2023-01-03T05:25:06.615Z,40.69
2023-01-03T05:26:16.831Z,40.81
2023-01-03T05:27:21.168Z,42.47
2023-01-03T05:28:25.496Z,41.13
2023-01-03T05:29:30.743Z,39.88
2023-01-03T05:30:34.798Z,40.63
2023-01-03T05:31:39.189Z,41.44
2023-01-03T05:32:43.308Z,43.87
2023-01-03T05:33:47.743Z,41.56
2023-01-03T05:34:51.807Z,41.87
2023-01-03T05:35:55.931Z,43.80
2023-01-03T05:37:00.256Z,41.50
2023-01-03T05:38:06.101Z,42.80
2023-01-03T05:39:11.473Z,39.88
2023-01-03T05:40:21.461Z,38.63
2023-01-03T05:41:27.013Z,42.88
2023-01-03T05:42:31.277Z,42.38
2023-01-03T05:43:41.319Z,44.06
2023-01-03T05:44:47.123Z,41.73
2023-01-03T05:45:55.610Z,43.44
2023-01-03T05:47:02.274Z,42.00
2023-01-03T05:48:09.420Z,43.44
2023-01-03T05:49:14.003Z,41.75
2023-01-03T05:50:19.551Z,43.94
2023-01-03T05:51:23.742Z,40.40
2023-01-03T05:52:28.043Z,43.73
2023-01-03T05:53:32.354Z,42.27
2023-01-03T05:54:38.037Z,43.47
2023-01-03T05:55:42.218Z,40.44
2023-01-03T05:56:47.409Z,43.31
2023-01-03T05:57:53.560Z,41.33
2023-01-03T05:59:00.311Z,40.12
2023-01-03T06:00:05.700Z,39.44
2023-01-03T06:01:16.920Z,44.56
2023-01-03T06:02:21.238Z,37.94
2023-01-03T06:03:25.929Z,43.67
2023-01-03T06:04:30.210Z,39.00
2023-01-03T06:05:34.518Z,40.87
2023-01-03T06:06:39.066Z,41.75
2023-01-03T06:07:43.533Z,41.81
2023-01-03T06:08:49.550Z,42.87
2023-01-03T06:09:53.729Z,45.93
2023-01-03T06:10:57.972Z,40.93
2023-01-03T06:12:02.662Z,44.67
2023-01-03T06:13:06.890Z,41.00
2023-01-03T06:14:11.141Z,41.27
2023-01-03T06:15:15.349Z,42.13
2023-01-03T06:16:24.600Z,40.31
2023-01-03T06:17:27.153Z,39.20
2023-01-03T06:18:31.420Z,41.50
2023-01-03T06:19:36.171Z,40.88
2023-01-03T06:20:40.643Z,38.47
2023-01-03T06:21:44.847Z,42.00
2023-01-03T06:22:49.113Z,38.50
2023-01-03T06:23:53.691Z,42.38
2023-01-03T06:24:57.870Z,42.13
2023-01-03T06:26:04.387Z,41.31
2023-01-03T06:27:08.705Z,41.69
2023-01-03T06:28:12.876Z,42.00
2023-01-03T06:29:17.081Z,41.67
2023-01-03T06:30:21.407Z,37.40
2023-01-03T06:31:25.772Z,40.20
2023-01-03T06:32:31.388Z,42.94
2023-01-03T06:33:35.770Z,41.63
2023-01-03T06:34:40.135Z,41.63
2023-01-03T06:35:44.472Z,39.94
2023-01-03T06:36:48.770Z,42.00
2023-01-03T06:37:53.005Z,37.13
2023-01-03T06:38:58.543Z,41.40
2023-01-03T06:40:02.922Z,39.94
2023-01-03T06:41:10.105Z,40.88
2023-01-03T06:42:14.286Z,40.69
2023-01-03T06:43:19.924Z,37.94
2023-01-03T06:44:24.154Z,40.20
2023-01-03T06:45:28.426Z,39.13
2023-01-03T06:46:32.924Z,40.07
2023-01-03T06:47:43.353Z,39.67
2023-01-03T06:48:47.322Z,39.50
2023-01-03T06:49:51.336Z,41.75
2023-01-03T06:50:56.527Z,39.00
2023-01-03T06:52:01.062Z,42.56
2023-01-03T06:53:05.657Z,39.47
2023-01-03T06:55:56.667Z,38.56
2023-01-03T06:56:58.932Z,37.00
2023-01-03T06:58:03.285Z,43.50
2023-01-03T06:59:07.318Z,40.88
2023-01-03T07:00:12.565Z,41.63
2023-01-03T07:01:16.795Z,42.94
2023-01-03T07:02:21.179Z,44.20
2023-01-03T07:03:26.094Z,43.25
2023-01-03T07:04:30.324Z,44.07
2023-01-03T07:05:36.213Z,39.80
2023-01-03T07:06:41.109Z,39.20
2023-01-03T07:07:45.108Z,41.60
2023-01-03T07:08:49.214Z,40.13
2023-01-03T07:09:54.878Z,40.44
2023-01-03T07:10:59.333Z,41.06
2023-01-03T07:12:03.423Z,39.27
2023-01-03T07:13:07.637Z,39.81
2023-01-03T07:14:13.328Z,39.00
2023-01-03T07:15:17.518Z,38.20
2023-01-03T07:16:22.177Z,37.63
2023-01-03T07:17:26.320Z,35.56
2023-01-03T07:18:31.380Z,39.25
2023-01-03T07:19:35.495Z,37.50
2023-01-03T07:20:45.547Z,37.19
2023-01-03T07:21:49.718Z,37.81
2023-01-03T07:22:54.409Z,39.50
2023-01-03T07:24:02.879Z,37.93
2023-01-03T07:25:06.625Z,39.00
2023-01-03T07:26:12.129Z,37.56
2023-01-03T07:27:16.370Z,39.06
2023-01-03T07:28:20.649Z,38.19
2023-01-03T07:29:24.648Z,37.81
2023-01-03T07:30:30.181Z,39.94
2023-01-03T07:31:35.733Z,37.69
2023-01-03T07:32:40.093Z,39.88
2023-01-03T07:33:44.542Z,37.38
2023-01-03T07:34:48.552Z,36.25
2023-01-03T07:35:52.865Z,36.87
2023-01-03T07:36:57.167Z,37.38
2023-01-03T07:38:01.716Z,36.44
2023-01-03T07:39:05.973Z,34.20
2023-01-03T07:40:12.501Z,40.33
2023-01-03T07:41:19.462Z,36.06
2023-01-03T07:42:25.489Z,41.07
2023-01-03T07:43:32.503Z,51.60
2023-01-03T07:44:38.241Z,36.44
2023-01-03T07:45:44.205Z,39.69
2023-01-03T07:46:52.313Z,38.88
2023-01-03T07:47:56.789Z,37.13
2023-01-03T07:49:03.302Z,36.00
2023-01-03T07:50:07.208Z,36.75
2023-01-03T07:51:14.189Z,35.69
2023-01-03T07:52:18.292Z,36.60
2023-01-03T07:53:22.604Z,36.38
2023-01-03T07:54:26.781Z,34.94
2023-01-03T07:55:32.141Z,32.56
2023-01-03T07:56:36.664Z,35.13
2023-01-03T07:57:40.711Z,31.62
2023-01-03T07:58:45.990Z,34.88
2023-01-03T07:59:53.261Z,38.06
2023-01-03T08:00:58.968Z,35.88
2023-01-03T08:02:03.206Z,36.13
2023-01-03T08:03:10.827Z,32.44
2023-01-03T08:04:13.264Z,33.25
2023-01-03T08:05:17.588Z,35.19
2023-01-03T08:06:24.166Z,37.25
2023-01-03T08:07:28.740Z,38.06
2023-01-03T08:08:33.325Z,33.00
2023-01-03T08:09:37.430Z,34.50
2023-01-03T08:10:41.630Z,31.31
2023-01-03T08:11:45.834Z,37.19
2023-01-03T08:12:51.948Z,35.88
2023-01-03T08:13:56.263Z,35.69
2023-01-03T08:15:00.417Z,34.81
2023-01-03T08:16:04.845Z,37.19
2023-01-03T08:17:09.321Z,34.81
2023-01-03T08:18:16.009Z,32.06
2023-01-03T08:19:19.853Z,34.38
2023-01-03T08:20:24.768Z,34.69
2023-01-03T08:21:29.841Z,44.31
2023-01-03T08:22:34.206Z,34.88
2023-01-03T08:23:39.487Z,35.13
2023-01-03T08:24:45.013Z,35.81
2023-01-03T08:25:49.489Z,35.44
2023-01-03T08:26:54.067Z,35.69
2023-01-03T08:28:01.978Z,35.00
2023-01-03T08:29:06.342Z,36.81
2023-01-03T08:30:11.889Z,37.25
2023-01-03T08:31:20.262Z,34.38
2023-01-03T08:32:24.717Z,36.81
2023-01-03T08:33:32.083Z,37.06
2023-01-03T08:34:39.578Z,38.56
2023-01-03T08:35:55.665Z,37.19
2023-01-03T08:37:07.752Z,37.94
2023-01-03T08:38:17.525Z,38.56
2023-01-03T08:39:25.784Z,41.25
2023-01-03T08:40:38.104Z,7.81
2023-01-03T08:41:43.200Z,44.53
2023-01-03T08:42:49.824Z,40.12
2023-01-03T08:43:54.875Z,41.25
2023-01-03T08:45:01.916Z,40.38
2023-01-03T08:46:09.394Z,42.94
2023-01-03T08:47:15.300Z,40.81
2023-01-03T08:48:23.371Z,42.62
2023-01-03T08:49:27.644Z,41.94
2023-01-03T08:50:32.299Z,41.25
2023-01-03T08:51:36.475Z,44.38
2023-01-03T08:52:40.752Z,42.87
2023-01-03T08:53:44.942Z,44.60
2023-01-03T08:54:49.377Z,44.50
2023-01-03T08:55:55.645Z,42.31
2023-01-03T08:56:59.860Z,43.87
2023-01-03T08:58:04.026Z,42.06
2023-01-03T08:59:08.079Z,44.47
2023-01-03T09:00:12.867Z,43.13
2023-01-03T09:01:17.020Z,42.13
2023-01-03T09:02:21.756Z,44.47
2023-01-03T09:03:26.261Z,43.50
2023-01-03T09:04:30.683Z,42.13
2023-01-03T09:05:35.039Z,42.00
2023-01-03T09:06:39.165Z,42.81
2023-01-03T09:07:43.991Z,40.44
2023-01-03T09:08:48.496Z,42.62
2023-01-03T09:09:52.655Z,39.69
2023-01-03T09:10:56.990Z,40.80
2023-01-03T09:12:02.989Z,40.33
2023-01-03T09:13:08.731Z,44.27
2023-01-03T09:14:12.845Z,39.25
2023-01-03T09:15:17.102Z,38.44
2023-01-03T09:16:21.877Z,41.20
2023-01-03T09:17:29.836Z,42.27
2023-01-03T09:18:36.281Z,41.13
2023-01-03T09:19:40.300Z,39.56
2023-01-03T09:20:44.601Z,42.38
2023-01-03T09:21:50.475Z,38.00
2023-01-03T09:22:54.529Z,40.88
2023-01-03T09:24:00.357Z,40.50
2023-01-03T09:25:06.451Z,42.31
2023-01-03T09:26:11.957Z,39.19
2023-01-03T09:27:16.401Z,39.75
2023-01-03T09:28:20.684Z,38.13
2023-01-03T09:29:24.848Z,36.69
2023-01-03T09:30:29.804Z,38.94
2023-01-03T09:31:35.635Z,38.75
2023-01-03T09:32:40.583Z,36.13
2023-01-03T09:33:47.678Z,37.69
2023-01-03T09:34:54.668Z,37.06
2023-01-03T09:36:00.419Z,33.44
2023-01-03T09:37:08.354Z,34.50
2023-01-03T09:38:14.525Z,37.56
2023-01-03T09:39:20.275Z,37.13
2023-01-03T09:40:26.128Z,32.88
2023-01-03T09:41:30.327Z,35.56
2023-01-03T09:42:37.312Z,36.19
2023-01-03T09:43:44.371Z,33.38
2023-01-03T09:44:48.559Z,34.88
2023-01-03T09:45:57.060Z,37.13
2023-01-03T09:47:04.518Z,34.50
2023-01-03T09:48:13.934Z,33.60
2023-01-03T09:49:21.309Z,37.38
2023-01-03T09:50:39.268Z,35.63
2023-01-03T09:51:40.826Z,35.06
2023-01-03T09:52:46.669Z,34.56
2023-01-03T09:53:54.352Z,34.93
2023-01-03T09:54:59.721Z,35.47
2023-01-03T09:56:05.029Z,33.13
2023-01-03T09:57:12.149Z,33.38
2023-01-03T09:58:16.685Z,34.50
2023-01-03T09:59:20.829Z,32.27
2023-01-03T10:00:43.038Z,32.25
2023-01-03T10:02:06.494Z,34.00
2023-01-03T10:03:28.284Z,33.88
2023-01-03T10:05:08.643Z,33.38
2023-01-03T10:06:30.317Z,28.69
2023-01-03T10:07:47.739Z,35.06
2023-01-03T10:09:11.580Z,36.38
2023-01-03T10:10:35.379Z,35.31
2023-01-03T10:12:00.371Z,32.44
2023-01-03T10:13:30.675Z,30.94
2023-01-03T10:14:46.978Z,35.56
2023-01-03T10:16:21.413Z,35.00
2023-01-03T10:17:43.427Z,32.81
2023-01-03T10:19:05.677Z,33.67
2023-01-03T10:20:19.797Z,35.75
2023-01-03T10:21:47.979Z,31.69
2023-01-03T10:22:54.212Z,32.25
2023-01-03T10:23:59.884Z,35.75
2023-01-03T10:25:09.874Z,31.75
2023-01-03T10:26:14.698Z,32.44
2023-01-03T10:27:27.330Z,31.19
2023-01-03T10:28:37.256Z,32.44
2023-01-03T10:29:45.815Z,34.63
2023-01-03T10:31:00.754Z,35.75
2023-01-03T10:32:21.637Z,33.63
2023-01-03T10:33:43.548Z,35.50
2023-01-03T10:35:12.084Z,36.25
2023-01-03T10:36:19.954Z,36.06
2023-01-03T10:37:27.397Z,34.50
2023-01-03T10:38:36.720Z,35.06
2023-01-03T10:39:41.670Z,35.19
2023-01-03T10:40:54.554Z,38.75
2023-01-03T10:42:00.322Z,37.38
2023-01-03T10:43:31.335Z,34.93
2023-01-03T10:44:37.979Z,35.38
2023-01-03T10:46:01.630Z,37.94
2023-01-03T10:47:12.716Z,38.75
2023-01-03T10:48:16.807Z,38.00
2023-01-03T10:49:27.825Z,31.00
2023-01-03T10:50:36.001Z,35.00
2023-01-03T10:51:43.589Z,37.13
2023-01-03T10:52:52.142Z,37.27
2023-01-03T10:53:59.089Z,35.31
2023-01-03T10:55:19.107Z,35.88
2023-01-03T10:56:25.708Z,34.27
2023-01-03T10:57:42.323Z,35.56
2023-01-03T10:58:46.627Z,36.56
2023-01-03T10:59:52.943Z,36.06
2023-01-03T11:01:22.545Z,36.75
2023-01-03T11:02:28.381Z,37.44
2023-01-03T11:03:33.252Z,34.25
2023-01-03T11:04:38.813Z,38.75
2023-01-03T11:05:46.327Z,38.06
2023-01-03T11:07:10.103Z,36.63
2023-01-03T11:08:23.595Z,35.19
2023-01-03T11:09:50.625Z,36.73
2023-01-03T11:10:54.606Z,34.25
2023-01-03T11:12:01.851Z,36.19
2023-01-03T11:13:25.634Z,33.63
2023-01-03T11:14:30.712Z,37.94
2023-01-03T11:15:39.383Z,38.56
2023-01-03T11:16:44.033Z,36.25
2023-01-03T11:17:58.081Z,34.31
2023-01-03T11:19:05.162Z,36.50
2023-01-03T11:20:20.044Z,29.81
2023-01-03T11:21:27.646Z,28.87
2023-01-03T11:22:57.875Z,31.12
2023-01-03T11:24:15.381Z,30.75
2023-01-03T11:25:31.584Z,28.06
2023-01-03T11:26:58.400Z,26.87
2023-01-03T11:28:26.033Z,28.06
2023-01-03T11:30:01.933Z,27.50
2023-01-03T11:31:20.127Z,29.56
2023-01-03T11:32:45.352Z,26.75
2023-01-03T11:34:02.658Z,28.25
2023-01-03T11:35:32.736Z,27.25
2023-01-03T11:36:42.895Z,28.19
2023-01-03T11:38:09.658Z,28.62
2023-01-03T11:39:31.809Z,28.25
2023-01-03T11:40:51.954Z,26.81
2023-01-03T11:42:21.065Z,32.75
2023-01-03T11:43:37.524Z,27.06
2023-01-03T11:44:51.986Z,27.19
2023-01-03T11:46:11.046Z,27.31
2023-01-03T11:47:35.990Z,27.50
2023-01-03T11:48:59.261Z,25.56
2023-01-03T11:50:10.643Z,22.37
2023-01-03T11:51:38.761Z,21.62
2023-01-03T11:54:07.332Z,25.88
2023-01-03T11:55:22.876Z,24.69
2023-01-03T11:56:30.074Z,21.62
2023-01-03T11:57:57.908Z,28.44
2023-01-03T11:59:28.780Z,20.25
2023-01-03T12:00:42.515Z,24.63
2023-01-03T12:02:06.327Z,22.69
2023-01-03T12:03:13.942Z,27.06
2023-01-03T12:04:28.198Z,29.94
2023-01-03T12:05:44.146Z,26.50
2023-01-03T12:07:14.272Z,23.44
2023-01-03T12:08:05.994Z,28.12
2023-01-03T12:09:42.171Z,29.25
2023-01-03T12:10:51.484Z,27.13
2023-01-03T12:12:16.582Z,26.25
2023-01-03T12:13:41.743Z,22.56
2023-01-03T12:16:38.133Z,29.56
2023-01-03T12:18:00.243Z,29.44
2023-01-03T12:19:12.623Z,27.75
2023-01-03T12:20:28.707Z,30.62
2023-01-03T12:22:05.297Z,30.37
2023-01-03T12:23:23.127Z,26.06
2023-01-03T12:24:42.646Z,26.31
2023-01-03T12:25:49.561Z,28.75
2023-01-03T12:26:58.632Z,28.12
2023-01-03T12:28:19.331Z,28.44
2023-01-03T12:29:38.573Z,17.44
2023-01-03T12:32:44.545Z,22.87
2023-01-03T12:34:14.030Z,30.62
2023-01-03T12:35:42.053Z,30.37
2023-01-03T12:37:22.300Z,29.25
2023-01-03T12:38:37.148Z,30.12
2023-01-03T12:39:50.197Z,26.69
2023-01-03T12:41:12.589Z,28.56
2023-01-03T12:42:20.633Z,28.19
2023-01-03T12:43:41.196Z,27.75
2023-01-03T12:44:49.556Z,28.62
2023-01-03T12:45:58.264Z,27.25
2023-01-03T12:47:05.415Z,28.75
2023-01-03T12:48:24.963Z,30.33
2023-01-03T12:49:37.740Z,28.87
2023-01-03T12:50:45.115Z,26.56
2023-01-03T12:51:52.029Z,29.50
2023-01-03T12:53:07.236Z,28.62
2023-01-03T12:54:32.220Z,27.94
2023-01-03T12:57:20.216Z,28.69
2023-01-03T12:58:40.257Z,30.12
2023-01-03T12:59:58.561Z,30.33
2023-01-03T13:01:21.083Z,28.06
2023-01-03T13:02:51.457Z,30.00
2023-01-03T13:04:00.723Z,30.06
2023-01-03T13:05:37.102Z,31.62
2023-01-03T13:06:42.299Z,31.56
2023-01-03T13:07:57.962Z,29.37
2023-01-03T13:09:06.135Z,31.12
2023-01-03T13:10:14.188Z,28.60
2023-01-03T13:11:32.685Z,32.88
2023-01-03T13:12:40.212Z,31.75
2023-01-03T13:13:55.742Z,34.69
2023-01-03T13:15:21.036Z,32.06
2023-01-03T13:16:40.535Z,32.00
2023-01-03T13:17:49.311Z,36.53
2023-01-03T13:18:55.092Z,31.25
2023-01-03T13:20:12.924Z,31.12
2023-01-03T13:22:03.134Z,28.75
2023-01-03T13:23:37.913Z,33.56
2023-01-03T13:25:03.890Z,31.75
2023-01-03T13:28:06.462Z,33.50
2023-01-03T13:31:17.607Z,32.19
2023-01-03T13:32:37.939Z,30.81
2023-01-03T13:33:36.831Z,26.37
2023-01-03T13:34:42.583Z,33.50
2023-01-03T13:35:49.821Z,31.19
2023-01-03T13:37:12.293Z,31.12
2023-01-03T13:38:26.719Z,30.62
2023-01-03T13:39:48.803Z,33.25
2023-01-03T13:42:04.846Z,33.25
2023-01-03T13:43:13.736Z,32.44
2023-01-03T13:44:25.377Z,32.13
2023-01-03T13:45:35.487Z,33.19
2023-01-03T13:46:42.053Z,38.94
2023-01-03T13:47:51.808Z,34.20
2023-01-03T13:49:02.688Z,33.80
2023-01-03T13:50:22.091Z,35.75
2023-01-03T13:51:42.162Z,31.00
2023-01-03T13:53:23.282Z,30.88
2023-01-03T13:54:31.388Z,28.19
2023-01-03T13:56:06.025Z,30.62
2023-01-03T13:56:54.592Z,26.81
2023-01-03T13:58:00.645Z,30.88
2023-01-03T13:59:37.134Z,30.69
2023-01-03T14:00:41.718Z,25.81
2023-01-03T14:02:04.237Z,28.31
2023-01-03T14:03:21.932Z,23.00
2023-01-03T14:04:58.106Z,22.19
2023-01-03T14:06:16.037Z,24.37
2023-01-03T14:07:24.881Z,26.81
2023-01-03T14:08:52.537Z,22.60
2023-01-03T14:09:59.869Z,23.12
2023-01-03T14:11:10.946Z,20.69
2023-01-03T14:12:30.640Z,20.62
2023-01-03T14:13:55.728Z,19.25
2023-01-03T14:14:59.560Z,20.50
2023-01-03T14:16:12.856Z,18.50
2023-01-03T14:17:21.444Z,20.00
2023-01-03T14:18:28.623Z,16.00
2023-01-03T14:19:36.166Z,19.00
2023-01-03T14:20:46.291Z,20.06
2023-01-03T14:22:26.522Z,14.94
2023-01-03T14:23:57.318Z,15.88
2023-01-03T14:24:29.913Z,16.81
2023-01-03T14:25:43.654Z,17.50
2023-01-03T14:26:48.750Z,18.50
2023-01-03T14:27:55.434Z,15.25
2023-01-03T14:29:02.748Z,17.19
2023-01-03T14:30:20.272Z,21.37
2023-01-03T14:31:28.872Z,17.50
2023-01-03T14:32:35.259Z,21.94
2023-01-03T14:33:44.809Z,18.44
2023-01-03T14:35:01.849Z,15.13
2023-01-03T14:36:14.429Z,16.62
2023-01-03T14:37:24.459Z,17.31
2023-01-03T14:38:38.071Z,15.38
2023-01-03T14:39:43.407Z,19.19
2023-01-03T14:40:49.350Z,14.31
2023-01-03T14:41:55.051Z,14.19
2023-01-03T14:43:02.418Z,15.50
2023-01-03T14:44:16.215Z,14.50
2023-01-03T14:45:21.958Z,13.94
2023-01-03T14:46:29.925Z,17.56
2023-01-03T14:47:41.641Z,19.31
2023-01-03T14:48:49.131Z,20.44
2023-01-03T14:49:56.648Z,25.06
2023-01-03T14:51:06.670Z,22.19
2023-01-03T14:52:15.448Z,23.94
2023-01-03T14:53:27.005Z,34.38
2023-01-03T14:54:29.082Z,30.31
2023-01-03T14:55:41.065Z,25.00
2023-01-03T14:56:46.893Z,25.19
2023-01-03T14:57:52.798Z,21.50
2023-01-03T14:59:09.324Z,25.44
2023-01-03T15:00:06.219Z,28.87
2023-01-03T15:01:15.332Z,22.80
2023-01-03T15:02:22.250Z,24.69
2023-01-03T15:03:29.588Z,23.00
2023-01-03T15:04:35.137Z,23.87
2023-01-03T15:05:44.386Z,27.25
2023-01-03T15:07:03.667Z,24.81
2023-01-03T15:08:31.640Z,26.37
2023-01-03T15:09:37.521Z,22.56
2023-01-03T15:11:14.238Z,24.81
2023-01-03T15:12:11.584Z,25.75
2023-01-03T15:13:21.535Z,25.25
2023-01-03T15:14:39.609Z,27.19
2023-01-03T15:15:44.505Z,22.25
2023-01-03T15:16:56.248Z,23.75
2023-01-03T15:18:02.623Z,23.00
2023-01-03T15:19:17.276Z,24.69